Time;durP1;ratioP1;P1;durP2;ratioP2;P2;SDS_P1;SDS_P2;PMS_P1;PMS_P2;Temp;Humidity;BMP_temperature;BMP_pressure;BME280_temperature;BME280_humidity;BME280_pressure;Samples;Min_cycle;Max_cycle;Signal;HPM_P1;HPM_P2
2023/01/03 00:00:48;;;;;;;13.27;3.88;;;7.20;99.90;;;;;;5044594;28;20088;-66
2023/01/03 00:03:16;;;;;;;9.32;3.72;;;7.20;99.90;;;;;;5046875;28;20087;-65
2023/01/03 00:05:43;;;;;;;8.45;4.55;;;7.20;99.90;;;;;;5050588;28;20479;-64
2023/01/03 00:08:09;;;;;;;9.07;4.82;;;7.10;99.90;;;;;;5044185;28;20030;-65
2023/01/03 00:10:34;;;;;;;10.80;5.35;;;7.10;99.90;;;;;;5046961;28;20032;-65
2023/01/03 00:13:00;;;;;;;9.55;5.15;;;7.00;99.90;;;;;;5047691;28;20029;-66
2023/01/03 00:15:26;;;;;;;13.85;5.30;;;7.00;99.90;;;;;;5054798;28;20064;-66
2023/01/03 00:17:52;;;;;;;10.23;5.30;;;6.90;99.90;;;;;;5049158;28;20033;-65
2023/01/03 00:20:18;;;;;;;12.23;5.07;;;6.90;99.90;;;;;;5051082;28;20673;-66
2023/01/03 00:22:44;;;;;;;7.45;4.03;;;6.90;99.90;;;;;;5044056;28;20025;-65
2023/01/03 00:25:10;;;;;;;6.53;4.05;;;6.90;99.90;;;;;;5046875;28;20033;-65
2023/01/03 00:27:35;;;;;;;9.48;4.07;;;6.80;99.90;;;;;;5047726;28;20036;-66
2023/01/03 00:30:01;;;;;;;6.15;3.80;;;6.80;99.90;;;;;;5046228;28;20119;-65
2023/01/03 00:32:27;;;;;;;6.57;3.75;;;6.70;99.90;;;;;;5047446;28;20033;-66
2023/01/03 00:34:52;;;;;;;8.95;3.92;;;6.70;99.90;;;;;;5044588;28;20481;-65
2023/01/03 00:37:18;;;;;;;10.85;4.20;;;6.60;99.90;;;;;;5037892;28;20075;-65
2023/01/03 00:39:44;;;;;;;11.25;2.95;;;6.50;99.90;;;;;;5040000;28;20065;-65
2023/01/03 00:42:10;;;;;;;8.73;3.17;;;6.60;99.90;;;;;;5043061;28;20025;-65
2023/01/03 00:44:35;;;;;;;11.15;3.80;;;6.60;99.90;;;;;;5041070;28;20025;-65
2023/01/03 00:47:01;;;;;;;7.88;3.42;;;6.60;99.90;;;;;;5049781;28;20031;-65
2023/01/03 00:49:27;;;;;;;7.22;2.83;;;6.60;99.90;;;;;;5047719;28;20036;-65
2023/01/03 00:51:53;;;;;;;8.10;2.30;;;6.60;99.90;;;;;;5045205;28;20421;-66
2023/01/03 00:54:20;;;;;;;5.03;2.50;;;6.50;99.90;;;;;;5047470;28;20082;-65
2023/01/03 00:56:48;;;;;;;7.03;3.05;;;6.50;99.90;;;;;;5043777;28;20028;-65
2023/01/03 00:59:15;;;;;;;6.95;3.10;;;6.50;99.90;;;;;;5042283;28;20079;-66
2023/01/03 01:01:46;;;;;;;13.27;4.53;;;6.50;99.90;;;;;;5033572;28;20507;-66
2023/01/03 01:04:17;;;;;;;9.57;3.13;;;6.50;99.90;;;;;;5046805;28;20021;-66
2023/01/03 01:06:45;;;;;;;7.63;3.00;;;6.50;99.90;;;;;;5044562;28;20087;-65
2023/01/03 01:09:14;;;;;;;7.25;2.65;;;6.50;99.90;;;;;;5042395;28;20032;-65
2023/01/03 01:11:40;;;;;;;6.85;3.00;;;6.50;99.90;;;;;;5045295;28;20025;-66
2023/01/03 01:14:18;;;;;;;9.13;2.45;;;6.50;99.90;;;;;;5045074;28;20043;-65
2023/01/03 01:16:52;;;;;;;8.55;3.20;;;6.50;99.90;;;;;;5042601;28;20422;-65
2023/01/03 01:19:21;;;;;;;6.07;3.03;;;6.60;99.90;;;;;;5047116;28;20029;-66
2023/01/03 01:21:48;;;;;;;6.60;2.58;;;6.70;99.90;;;;;;5042240;28;20076;-65
2023/01/03 01:24:14;;;;;;;10.38;2.58;;;6.70;99.90;;;;;;5040004;28;20057;-66
2023/01/03 01:26:39;;;;;;;7.82;2.38;;;6.80;99.90;;;;;;5033979;28;20749;-66
2023/01/03 01:29:05;;;;;;;7.85;2.22;;;6.80;99.90;;;;;;5037801;28;20029;-65
2023/01/03 01:31:31;;;;;;;5.07;2.75;;;6.80;99.90;;;;;;5028250;28;21242;-65
2023/01/03 01:33:57;;;;;;;10.70;2.88;;;6.90;99.90;;;;;;5040032;28;20037;-66
2023/01/03 01:36:29;;;;;;;11.10;2.60;;;6.90;99.90;;;;;;5037850;28;20055;-65
2023/01/03 01:38:57;;;;;;;8.02;2.10;;;6.90;99.90;;;;;;5036338;28;20037;-66
2023/01/03 01:44:46;;;;;;;10.27;2.65;;;6.90;99.90;;;;;;5038137;28;20040;-66
2023/01/03 01:47:26;;;;;;;5.07;2.33;;;6.80;99.90;;;;;;5038977;28;20053;-65
2023/01/03 01:50:18;;;;;;;5.68;2.17;;;6.80;99.90;;;;;;5034328;28;20104;-66
2023/01/03 01:52:58;;;;;;;8.20;2.45;;;6.80;99.90;;;;;;5028748;28;20037;-66
2023/01/03 01:55:29;;;;;;;8.70;2.88;;;6.80;99.90;;;;;;5042850;28;20036;-66
2023/01/03 01:57:55;;;;;;;3.17;2.08;;;6.80;99.90;;;;;;5036856;28;20060;-66
2023/01/03 02:00:21;;;;;;;4.47;2.58;;;6.80;99.90;;;;;;5041004;28;20048;-65
2023/01/03 02:02:50;;;;;;;7.22;2.63;;;6.80;99.90;;;;;;5037330;28;20040;-66
2023/01/03 02:05:18;;;;;;;13.95;2.65;;;6.80;99.90;;;;;;5032821;28;20022;-66
2023/01/03 02:07:48;;;;;;;8.32;2.35;;;6.80;99.90;;;;;;5036056;28;20029;-64
2023/01/03 02:10:13;;;;;;;4.32;2.45;;;6.80;99.90;;;;;;5035064;28;20056;-66
2023/01/03 02:13:04;;;;;;;6.07;3.10;;;6.90;99.90;;;;;;5035828;28;20065;-66
2023/01/03 02:16:10;;;;;;;8.13;2.85;;;6.90;99.90;;;;;;5035008;28;20112;-66
2023/01/03 02:18:56;;;;;;;5.85;2.95;;;7.00;99.90;;;;;;4972755;28;20066;-65
2023/01/03 02:21:31;;;;;;;6.30;2.00;;;7.00;99.90;;;;;;5036803;28;20024;-66
2023/01/03 02:24:18;;;;;;;4.22;2.58;;;7.00;99.90;;;;;;5034097;28;20090;-65
2023/01/03 02:27:21;;;;;;;5.65;2.10;;;7.00;99.90;;;;;;5033075;28;20029;-66
2023/01/03 02:29:59;;;;;;;6.03;2.13;;;7.10;99.90;;;;;;5032839;28;20029;-66
2023/01/03 02:32:49;;;;;;;9.35;1.98;;;7.10;99.90;;;;;;5037304;28;20074;-66
2023/01/03 02:35:23;;;;;;;7.18;2.35;;;7.10;99.90;;;;;;5043165;28;20037;-66
2023/01/03 02:38:11;;;;;;;5.82;1.83;;;7.10;99.90;;;;;;5044381;28;20078;-66
2023/01/03 02:40:44;;;;;;;5.45;2.20;;;7.00;99.90;;;;;;5045711;28;20036;-67
2023/01/03 02:43:17;;;;;;;5.10;2.20;;;7.00;99.90;;;;;;5019248;28;20029;-65
2023/01/03 02:45:59;;;;;;;5.03;2.13;;;6.90;99.90;;;;;;5032102;28;20033;-66
2023/01/03 02:48:50;;;;;;;3.95;2.25;;;6.90;99.90;;;;;;5038057;28;20033;-66
2023/01/03 02:51:30;;;;;;;3.78;2.15;;;6.90;99.90;;;;;;5044576;28;20032;-66
2023/01/03 02:53:58;;;;;;;4.53;1.92;;;6.80;99.90;;;;;;5045033;28;20037;-66
2023/01/03 02:56:32;;;;;;;7.78;2.80;;;6.80;99.90;;;;;;5037329;28;20036;-66
2023/01/03 02:59:02;;;;;;;9.88;3.80;;;6.80;99.90;;;;;;5017832;28;20040;-66
2023/01/03 03:01:30;;;;;;;6.63;3.13;;;6.80;99.90;;;;;;5032394;28;20032;-65
2023/01/03 03:03:58;;;;;;;9.23;2.90;;;6.80;99.90;;;;;;5035470;28;20033;-65
2023/01/03 03:06:40;;;;;;;13.63;4.50;;;6.80;99.90;;;;;;5034387;28;20517;-65
2023/01/03 03:09:06;;;;;;;13.32;3.92;;;6.70;99.90;;;;;;5034631;28;20060;-66
2023/01/03 03:14:36;;;;;;;6.32;2.80;;;6.60;99.90;;;;;;5034192;28;20048;-64
2023/01/03 03:17:07;;;;;;;8.70;3.40;;;6.50;99.90;;;;;;5034152;28;20033;-66
2023/01/03 03:25:42;;;;;;;8.13;2.90;;;6.30;99.90;;;;;;5034177;28;20058;-65
2023/01/03 03:31:00;;;;;;;7.70;3.15;;;6.00;99.90;;;;;;5035800;28;20094;-65
2023/01/03 03:33:29;;;;;;;6.40;3.10;;;5.90;99.90;;;;;;5035433;28;20056;-65
2023/01/03 03:36:37;;;;;;;6.78;3.13;;;5.80;99.90;;;;;;5034763;28;20029;-66
2023/01/03 03:39:05;;;;;;;9.60;3.20;;;5.70;99.90;;;;;;5031749;28;20514;-65
2023/01/03 03:47:40;;;;;;;7.03;3.40;;;5.60;99.90;;;;;;5033235;28;20028;-65
2023/01/03 03:50:18;;;;;;;7.22;3.80;;;5.60;99.90;;;;;;5035511;28;20522;-66
2023/01/03 03:52:47;;;;;;;9.23;4.00;;;5.60;99.90;;;;;;5032169;28;20044;-65
2023/01/03 03:55:22;;;;;;;9.60;4.47;;;5.70;99.90;;;;;;5036200;28;20040;-65
2023/01/03 03:57:57;;;;;;;9.35;4.78;;;5.80;99.90;;;;;;5033870;28;20047;-66
2023/01/03 04:00:24;;;;;;;;;;;5.80;99.90;;;;;;5035748;28;20035;-66
2023/01/03 04:02:52;;;;;;;10.93;4.57;;;5.90;99.90;;;;;;5031194;28;19931;-66
2023/01/03 04:05:21;;;;;;;7.07;4.45;;;5.90;99.90;;;;;;5034356;28;20032;-66
2023/01/03 04:07:46;;;;;;;11.27;4.30;;;6.00;99.90;;;;;;5030608;28;20120;-65
2023/01/03 04:10:13;;;;;;;8.13;5.03;;;6.10;99.90;;;;;;5035007;28;20047;-65
2023/01/03 04:12:39;;;;;;;11.05;5.45;;;6.10;99.90;;;;;;5035125;28;20033;-66
2023/01/03 04:15:06;;;;;;;9.90;4.70;;;6.20;99.90;;;;;;5035655;28;20033;-66
2023/01/03 04:17:32;;;;;;;9.57;5.13;;;6.20;99.90;;;;;;5032203;28;20028;-66
2023/01/03 04:19:58;;;;;;;10.10;4.60;;;6.20;99.90;;;;;;5032225;28;20486;-65
2023/01/03 04:22:23;;;;;;;12.20;5.32;;;6.20;99.90;;;;;;5034262;28;20024;-66
2023/01/03 04:24:49;;;;;;;5.97;4.75;;;6.30;99.90;;;;;;5035502;28;20479;-66
2023/01/03 04:27:14;;;;;;;10.27;4.90;;;6.30;99.90;;;;;;5033907;28;20071;-66
2023/01/03 04:29:40;;;;;;;7.18;4.78;;;6.30;99.90;;;;;;5034634;28;20048;-65
2023/01/03 04:32:06;;;;;;;5.93;4.60;;;6.30;99.90;;;;;;5032115;28;20079;-66
2023/01/03 04:34:32;;;;;;;8.35;5.47;;;6.30;99.90;;;;;;5020751;28;20616;-65
2023/01/03 04:36:58;;;;;;;7.30;4.03;;;6.30;99.90;;;;;;5044975;28;20078;-66
2023/01/03 04:39:23;;;;;;;5.50;3.80;;;6.30;99.90;;;;;;5045990;28;20025;-65
2023/01/03 04:41:49;;;;;;;9.63;3.55;;;6.30;99.90;;;;;;5048686;28;20017;-65
2023/01/03 04:44:14;;;;;;;5.22;3.38;;;6.30;99.90;;;;;;5035000;28;20120;-66
2023/01/03 04:46:40;;;;;;;6.18;3.20;;;6.30;99.90;;;;;;5045356;28;20041;-66
2023/01/03 04:49:08;;;;;;;13.23;3.17;;;6.30;99.90;;;;;;5040137;28;20436;-66
2023/01/03 04:51:34;;;;;;;9.40;3.65;;;6.30;99.90;;;;;;5045697;28;20079;-66
2023/01/03 04:54:01;;;;;;;5.30;3.00;;;6.30;99.90;;;;;;5019494;28;20796;-66
2023/01/03 04:56:32;;;;;;;5.70;3.10;;;6.30;99.90;;;;;;5038973;28;20834;-66
2023/01/03 04:58:58;;;;;;;5.82;2.65;;;6.30;99.90;;;;;;5046769;28;20090;-67
2023/01/03 05:01:24;;;;;;;4.90;2.60;;;6.30;99.90;;;;;;5046373;28;20029;-66
2023/01/03 05:03:50;;;;;;;4.88;2.50;;;6.40;99.90;;;;;;5042554;28;20477;-66
2023/01/03 05:06:17;;;;;;;4.50;2.78;;;6.40;99.90;;;;;;5046741;28;20089;-66
2023/01/03 05:08:46;;;;;;;8.23;3.15;;;6.40;99.90;;;;;;5047738;28;20390;-67
2023/01/03 05:11:12;;;;;;;4.80;2.50;;;6.50;99.90;;;;;;5049380;28;20460;-66
2023/01/03 05:13:38;;;;;;;4.90;2.80;;;6.50;99.90;;;;;;5046798;28;20025;-66
2023/01/03 05:16:05;;;;;;;8.50;2.75;;;6.50;99.90;;;;;;5049250;28;20048;-66
2023/01/03 05:18:32;;;;;;;9.02;2.40;;;6.50;99.90;;;;;;5045598;28;20033;-66
2023/01/03 05:26:32;;;;;;;9.27;2.65;;;6.60;99.90;;;;;;5042399;28;20445;-66
2023/01/03 05:28:58;;;;;;;5.85;1.90;;;6.60;99.90;;;;;;5046021;28;20060;-66
2023/01/03 05:31:23;;;;;;;8.52;2.25;;;6.60;99.90;;;;;;5044495;28;20494;-66
2023/01/03 05:33:49;;;;;;;5.53;2.38;;;6.60;99.90;;;;;;5042519;28;20548;-65
2023/01/03 05:36:14;;;;;;;2.58;1.88;;;6.60;99.90;;;;;;5046592;28;20104;-66
2023/01/03 05:38:40;;;;;;;6.63;1.88;;;6.60;99.90;;;;;;5042226;28;20029;-66
2023/01/03 05:41:05;;;;;;;4.10;1.98;;;6.60;99.90;;;;;;5048928;28;20025;-66
2023/01/03 05:43:31;;;;;;;6.57;1.90;;;6.60;99.90;;;;;;5048717;28;20040;-66
2023/01/03 05:45:57;;;;;;;3.97;2.53;;;6.60;99.90;;;;;;5053458;28;20016;-67
2023/01/03 05:48:22;;;;;;;5.53;2.10;;;6.70;99.90;;;;;;5045839;28;20479;-66
2023/01/03 05:50:48;;;;;;;3.70;2.20;;;6.60;99.90;;;;;;5047070;28;20094;-67
2023/01/03 05:53:14;;;;;;;4.88;2.03;;;6.60;99.90;;;;;;5039772;28;20025;-66
2023/01/03 05:55:40;;;;;;;4.88;1.95;;;6.60;99.90;;;;;;5046432;28;20033;-66
2023/01/03 05:58:07;;;;;;;4.15;1.70;;;6.60;99.90;;;;;;5040353;28;20112;-67
2023/01/03 06:00:33;;;;;;;4.75;2.10;;;6.60;99.90;;;;;;5048266;28;20021;-66
2023/01/03 06:02:59;;;;;;;7.57;2.67;;;6.60;99.90;;;;;;5044287;28;20020;-66
2023/01/03 06:05:24;;;;;;;6.95;2.03;;;6.60;99.90;;;;;;5047532;28;20681;-67
2023/01/03 06:07:50;;;;;;;3.08;2.20;;;6.60;99.90;;;;;;5042064;28;20040;-67
2023/01/03 06:10:16;;;;;;;3.65;2.03;;;6.60;99.90;;;;;;5043911;28;20111;-66
2023/01/03 06:12:41;;;;;;;8.10;2.67;;;6.60;99.90;;;;;;5040872;28;20029;-65
2023/01/03 06:15:07;;;;;;;8.00;2.50;;;6.60;99.90;;;;;;5044186;28;20033;-65
2023/01/03 06:20:17;;;;;;;3.85;2.22;;;6.50;99.90;;;;;;5045182;28;20505;-65
2023/01/03 06:22:43;;;;;;;2.75;1.95;;;6.40;99.90;;;;;;5038391;28;20037;-65
2023/01/03 06:25:09;;;;;;;5.82;1.90;;;6.30;99.90;;;;;;5046847;28;20174;-65
2023/01/03 06:27:35;;;;;;;8.57;3.13;;;6.10;99.90;;;;;;5040354;28;20033;-66
2023/01/03 06:30:01;;;;;;;4.40;2.25;;;6.00;99.90;;;;;;5049753;28;20043;-66
2023/01/03 06:32:26;;;;;;;8.48;3.28;;;5.90;99.90;;;;;;5046080;28;20041;-66
2023/01/03 06:34:52;;;;;;;13.48;3.80;;;5.80;99.90;;;;;;5047343;28;20025;-66
2023/01/03 06:37:17;;;;;;;5.30;3.35;;;5.70;99.90;;;;;;5048686;28;20082;-64
2023/01/03 06:39:44;;;;;;;7.82;2.88;;;5.60;99.90;;;;;;5045946;28;20029;-66
2023/01/03 06:53:19;;;;;;;4.47;2.70;;;5.10;99.90;;;;;;5044580;28;20109;-66
2023/01/03 06:55:45;;;;;;;11.32;2.72;;;5.00;99.90;;;;;;5043764;28;20096;-66
2023/01/03 06:58:12;;;;;;;6.20;2.80;;;5.00;99.90;;;;;;5051273;28;20025;-65
2023/01/03 07:00:39;;;;;;;2.80;2.13;;;5.00;99.90;;;;;;5043319;28;20025;-67
2023/01/03 07:03:05;;;;;;;3.92;2.38;;;5.00;99.90;;;;;;5050796;28;20028;-66
2023/01/03 07:05:30;;;;;;;7.93;3.65;;;5.00;99.90;;;;;;5053706;28;20077;-65
2023/01/03 07:07:56;;;;;;;7.00;2.22;;;5.00;99.90;;;;;;5039215;28;20501;-66
2023/01/03 07:10:22;;;;;;;5.45;2.53;;;5.00;99.90;;;;;;5044213;28;20053;-66
2023/01/03 07:15:32;;;;;;;6.95;2.58;;;4.80;99.90;;;;;;5048910;28;21677;-66
2023/01/03 07:17:58;;;;;;;4.82;2.85;;;4.80;99.90;;;;;;5049412;28;20061;-65
2023/01/03 07:20:23;;;;;;;7.78;3.30;;;4.80;99.90;;;;;;5051013;28;20108;-65
2023/01/03 07:22:49;;;;;;;5.07;3.20;;;4.80;99.90;;;;;;5045232;28;20033;-65
2023/01/03 07:25:14;;;;;;;6.43;2.90;;;4.80;99.90;;;;;;5044139;28;20033;-65
2023/01/03 07:27:40;;;;;;;10.85;3.40;;;4.80;99.90;;;;;;5052124;28;20028;-66
2023/01/03 07:30:06;;;;;;;10.40;3.33;;;4.90;99.90;;;;;;5050360;28;20025;-66
2023/01/03 07:32:32;;;;;;;9.32;3.85;;;5.00;99.90;;;;;;5051721;28;20075;-65
2023/01/03 07:34:57;;;;;;;7.72;4.07;;;5.10;99.90;;;;;;5048902;28;20029;-65
2023/01/03 07:37:23;;;;;;;6.97;3.15;;;5.20;99.90;;;;;;5049153;28;20059;-65
2023/01/03 07:39:48;;;;;;;11.05;3.47;;;5.20;99.90;;;;;;5048972;28;20032;-65
2023/01/03 07:44:58;;;;;;;9.48;3.50;;;5.20;99.90;;;;;;5053611;28;20109;-66
2023/01/03 07:47:23;;;;;;;8.77;2.88;;;5.20;99.90;;;;;;5041278;28;20558;-65
2023/01/03 07:49:49;;;;;;;6.07;3.60;;;5.10;99.90;;;;;;5050458;28;20388;-67
2023/01/03 07:52:14;;;;;;;9.25;3.45;;;5.00;99.90;;;;;;5049837;28;20079;-66
2023/01/03 07:54:40;;;;;;;11.10;4.75;;;5.00;99.90;;;;;;5043700;28;20036;-66
2023/01/03 07:57:06;;;;;;;7.78;2.90;;;5.00;99.90;;;;;;5046779;28;20022;-65
2023/01/03 07:59:31;;;;;;;10.50;3.92;;;5.00;99.90;;;;;;5047799;28;20044;-65
2023/01/03 08:01:57;;;;;;;5.43;3.50;;;5.10;99.90;;;;;;5025714;28;20051;-65
2023/01/03 08:04:22;;;;;;;10.38;4.22;;;5.30;99.90;;;;;;5042893;28;20645;-65
2023/01/03 08:06:48;;;;;;;5.88;4.13;;;5.40;99.90;;;;;;5050718;28;20021;-65
2023/01/03 08:14:43;;;;;;;7.60;2.92;;;5.80;99.90;;;;;;5046442;28;20099;-65
2023/01/03 08:17:08;;;;;;;5.95;3.00;;;5.90;99.90;;;;;;5055538;28;20057;-65
2023/01/03 08:19:34;;;;;;;5.93;3.08;;;5.90;99.90;;;;;;5058738;28;20072;-65
2023/01/03 08:21:59;;;;;;;5.57;3.10;;;6.00;99.90;;;;;;5049801;28;20410;-64
2023/01/03 08:24:25;;;;;;;4.63;2.45;;;6.00;99.90;;;;;;5050416;28;20051;-65
2023/01/03 08:26:51;;;;;;;9.10;3.30;;;6.10;99.90;;;;;;5044452;28;20505;-65
2023/01/03 08:29:16;;;;;;;7.22;3.25;;;6.20;99.90;;;;;;5049208;28;20059;-65
2023/01/03 08:31:48;;;;;;;4.57;2.53;;;6.20;99.90;;;;;;5054924;28;20052;-64
2023/01/03 08:34:15;;;;;;;4.28;2.53;;;6.30;99.90;;;;;;5063336;28;20417;-65
2023/01/03 08:36:46;;;;;;;10.10;2.90;;;6.40;99.90;;;;;;5061246;28;20021;-65
2023/01/03 08:39:16;;;;;;;6.90;2.53;;;6.40;99.90;;;;;;5046014;28;20029;-65
2023/01/03 08:41:45;;;;;;;2.92;1.98;;;6.50;99.90;;;;;;5045941;28;20135;-65
2023/01/03 08:44:11;;;;;;;3.97;1.98;;;6.60;99.90;;;;;;5047583;28;20452;-65
2023/01/03 08:46:41;;;;;;;2.22;1.80;;;6.70;99.90;;;;;;5041323;28;20033;-65
2023/01/03 08:49:07;;;;;;;8.10;2.30;;;6.70;99.90;;;;;;5049530;28;20453;-65
2023/01/03 08:51:33;;;;;;;4.38;2.20;;;6.80;99.90;;;;;;5046030;28;20390;-66
2023/01/03 08:53:58;;;;;;;4.45;2.15;;;6.80;99.90;;;;;;5045565;28;20074;-66
2023/01/03 08:56:24;;;;;;;4.20;2.20;;;6.80;99.90;;;;;;5043433;28;20033;-66
2023/01/03 08:58:50;;;;;;;2.35;1.63;;;6.80;99.90;;;;;;5045011;28;20055;-66
2023/01/03 09:01:16;;;;;;;3.45;2.45;;;6.80;99.90;;;;;;5026702;28;20048;-66
2023/01/03 09:03:41;;;;;;;5.93;2.17;;;6.90;99.90;;;;;;5042350;28;20395;-66
2023/01/03 09:06:07;;;;;;;7.75;2.20;;;6.90;99.90;;;;;;5042090;28;20032;-66
2023/01/03 09:08:33;;;;;;;7.03;2.42;;;6.90;99.90;;;;;;5042922;28;20522;-66
2023/01/03 09:11:07;;;;;;;3.10;2.22;;;7.00;99.90;;;;;;5040363;28;20032;-66
2023/01/03 09:13:33;;;;;;;4.43;2.08;;;6.90;99.90;;;;;;5044326;28;20033;-65
2023/01/03 09:16:04;;;;;;;3.13;1.92;;;7.00;99.90;;;;;;5051011;28;20068;-66
2023/01/03 09:18:30;;;;;;;5.32;1.90;;;7.10;99.90;;;;;;5049356;28;20086;-66
2023/01/03 09:20:55;;;;;;;2.88;1.60;;;7.20;99.90;;;;;;5042787;28;20664;-66
2023/01/03 09:23:21;;;;;;;8.63;1.75;;;7.20;99.90;;;;;;5045878;28;20128;-66
2023/01/03 09:25:46;;;;;;;2.58;1.67;;;7.30;99.90;;;;;;5047960;28;20501;-66
2023/01/03 09:28:12;;;;;;;7.43;2.13;;;7.30;99.90;;;;;;5050388;28;20497;-66
2023/01/03 09:30:38;;;;;;;4.40;1.88;;;7.40;99.90;;;;;;5038925;28;20574;-66
2023/01/03 09:33:04;;;;;;;3.33;1.60;;;7.40;99.90;;;;;;5037392;28;20062;-65
2023/01/03 09:35:30;;;;;;;4.00;1.55;;;7.50;99.90;;;;;;5043742;28;20060;-66
2023/01/03 09:37:56;;;;;;;6.07;2.08;;;7.50;99.90;;;;;;5047941;28;20033;-66
2023/01/03 09:40:22;;;;;;;2.20;1.40;;;7.70;99.90;;;;;;5042270;28;20025;-66
2023/01/03 09:45:35;;;;;;;4.40;1.95;;;7.90;99.90;;;;;;5047512;28;20039;-66
2023/01/03 09:48:03;;;;;;;2.10;1.20;;;7.90;99.90;;;;;;5042233;28;20068;-66
2023/01/03 09:50:35;;;;;;;2.90;1.70;;;8.00;99.90;;;;;;5046925;28;20029;-66
2023/01/03 10:03:42;;;;;;;4.45;1.88;;;8.10;99.90;;;;;;5040773;28;20036;-66
2023/01/03 10:04:52;;;;;;;5.18;1.30;;;8.50;99.90;;;;;;5040141;28;20115;-66
2023/01/03 10:07:36;;;;;;;3.00;1.50;;;8.60;99.90;;;;;;5055033;22;20020;-65
2023/01/03 10:10:21;;;;;;;6.38;1.83;;;8.70;99.90;;;;;;5017297;28;22180;-65
2023/01/03 10:12:59;;;;;;;5.13;1.05;;;8.80;99.90;;;;;;5017802;28;20013;-65
2023/01/03 10:15:36;;;;;;;3.65;1.48;;;8.90;99.90;;;;;;5019103;28;20032;-65
2023/01/03 10:18:26;;;;;;;3.03;1.15;;;9.00;99.90;;;;;;5025261;28;20040;-65
2023/01/03 10:21:05;;;;;;;2.28;1.45;;;9.20;99.90;;;;;;5037084;28;20038;-65
2023/01/03 10:23:30;;;;;;;2.33;1.40;;;9.20;99.90;;;;;;5046908;28;20116;-65
2023/01/03 10:25:57;;;;;;;3.78;1.70;;;9.20;99.90;;;;;;5048813;28;20437;-65
2023/01/03 10:28:27;;;;;;;4.72;2.05;;;9.20;99.90;;;;;;5041900;28;20037;-65
2023/01/03 10:31:08;;;;;;;10.15;1.38;;;9.30;99.90;;;;;;5039333;28;20102;-65
2023/01/03 10:33:37;;;;;;;3.08;1.60;;;9.40;99.90;;;;;;5041611;28;20108;-64
2023/01/03 10:36:03;;;;;;;7.10;1.70;;;9.50;99.90;;;;;;5047083;28;20032;-65
2023/01/03 10:38:29;;;;;;;5.43;2.50;;;9.50;99.90;;;;;;5046021;28;20036;-65
2023/01/03 10:40:58;;;;;;;5.57;1.75;;;9.60;99.90;;;;;;5025248;28;20029;-65
2023/01/03 10:43:27;;;;;;;2.88;2.03;;;9.60;99.90;;;;;;5043365;28;20575;-65
2023/01/03 10:45:57;;;;;;;3.72;1.20;;;9.60;99.90;;;;;;5043931;28;20029;-64
2023/01/03 10:48:24;;;;;;;6.47;1.70;;;9.80;99.90;;;;;;5042452;28;20029;-65
2023/01/03 10:50:50;;;;;;;2.10;1.38;;;9.90;99.90;;;;;;5019350;28;20025;-65
2023/01/03 10:53:20;;;;;;;3.78;1.50;;;10.00;99.90;;;;;;5046868;28;20486;-65
2023/01/03 10:55:52;;;;;;;3.08;1.38;;;10.00;99.90;;;;;;5047652;28;20094;-65
2023/01/03 10:58:21;;;;;;;2.58;1.38;;;10.00;99.90;;;;;;5036752;28;20037;-65
2023/01/03 11:00:47;;;;;;;6.25;1.42;;;9.90;99.90;;;;;;5031472;28;20027;-65
2023/01/03 11:03:19;;;;;;;5.43;2.08;;;9.80;99.90;;;;;;5047070;28;20479;-64
2023/01/03 11:06:08;;;;;;;2.72;1.65;;;9.80;99.90;;;;;;5036296;28;20598;-65
2023/01/03 11:08:46;;;;;;;10.18;1.88;;;10.00;99.90;;;;;;5036248;28;20132;-65
2023/01/03 11:11:27;;;;;;;3.17;1.35;;;10.10;99.90;;;;;;5059067;28;20036;-65
2023/01/03 11:14:23;;;;;;;5.47;1.63;;;10.00;99.90;;;;;;5039833;28;20036;-64
2023/01/03 11:17:03;;;;;;;2.72;0.88;;;10.00;99.90;;;;;;5049435;28;20032;-65
2023/01/03 11:19:31;;;;;;;2.88;1.38;;;10.10;99.90;;;;;;5049778;28;20028;-64
2023/01/03 11:22:05;;;;;;;6.40;2.20;;;10.10;99.90;;;;;;5042992;28;20021;-65
2023/01/03 11:24:54;;;;;;;3.15;1.20;;;10.20;99.90;;;;;;5042629;28;20064;-65
2023/01/03 11:27:25;;;;;;;3.30;1.00;;;10.10;99.90;;;;;;5039417;28;20048;-64
2023/01/03 11:29:54;;;;;;;3.03;1.23;;;10.00;99.90;;;;;;5046412;28;20120;-64
2023/01/03 11:32:40;;;;;;;3.03;0.82;;;10.00;99.90;;;;;;5047670;28;20087;-65
2023/01/03 11:35:56;;;;;;;2.50;0.88;;;10.00;99.90;;;;;;5050659;28;20025;-64
2023/01/03 11:38:40;;;;;;;4.50;0.88;;;9.90;99.90;;;;;;5017125;28;20041;-65
2023/01/03 11:41:15;;;;;;;;;;;9.90;99.90;;;;;;5049128;28;20159;-66
2023/01/03 11:43:51;;;;;;;3.95;1.08;;;9.90;99.90;;;;;;5042446;28;19920;-65
2023/01/03 11:46:59;;;;;;;3.13;0.85;;;9.90;99.90;;;;;;5046140;28;20037;-65
2023/01/03 11:49:35;;;;;;;7.22;1.52;;;9.90;99.90;;;;;;5041202;28;20040;-65
2023/01/03 11:52:23;;;;;;;3.67;1.00;;;9.90;99.90;;;;;;5039643;28;20028;-66
2023/01/03 11:55:14;;;;;;;4.50;1.58;;;9.90;99.90;;;;;;5041523;28;20411;-65
2023/01/03 11:58:12;;;;;;;2.53;0.68;;;10.00;99.90;;;;;;5045284;28;20025;-65
2023/01/03 12:01:02;;;;;;;3.40;0.90;;;10.00;99.90;;;;;;5047619;28;20929;-65
2023/01/03 12:03:51;;;;;;;3.55;0.77;;;10.10;99.90;;;;;;5045124;28;20037;-65
2023/01/03 12:06:23;;;;;;;1.77;0.88;;;10.20;99.90;;;;;;5051183;28;20025;-65
2023/01/03 12:09:13;;;;;;;1.75;0.98;;;10.30;99.90;;;;;;5042817;28;20036;-65
2023/01/03 12:11:56;;;;;;;1.48;0.75;;;10.40;99.90;;;;;;5047857;28;20510;-65
2023/01/03 12:14:33;;;;;;;2.00;1.03;;;10.40;99.90;;;;;;5047579;28;20052;-64
2023/01/03 12:17:17;;;;;;;1.45;0.90;;;10.60;99.90;;;;;;5046228;28;20032;-65
2023/01/03 12:20:00;;;;;;;1.42;0.93;;;10.70;99.90;;;;;;5026664;28;20082;-65
2023/01/03 12:22:32;;;;;;;4.93;1.02;;;10.80;99.90;;;;;;5045767;28;20116;-65
2023/01/03 12:25:43;;;;;;;4.78;0.70;;;10.80;99.90;;;;;;5045752;28;20017;-64
2023/01/03 12:28:11;;;;;;;2.15;0.90;;;10.80;99.90;;;;;;5041053;28;20049;-64
2023/01/03 12:30:43;;;;;;;1.85;0.90;;;10.80;99.90;;;;;;5033996;28;20029;-65
2023/01/03 12:33:54;;;;;;;0.70;0.65;;;10.80;99.90;;;;;;5049378;28;20020;-66
2023/01/03 12:36:25;;;;;;;7.05;1.00;;;10.90;99.90;;;;;;5043959;28;20036;-64
2023/01/03 12:39:17;;;;;;;3.03;0.90;;;10.80;99.90;;;;;;5053026;28;20021;-64
2023/01/03 12:41:55;;;;;;;1.85;0.60;;;10.70;99.90;;;;;;5001134;28;20053;-65
2023/01/03 12:44:29;;;;;;;1.10;0.80;;;10.80;99.90;;;;;;5048594;28;20017;-65
2023/01/03 12:46:55;;;;;;;;;;;10.90;99.90;;;;;;5025537;28;20777;-63
2023/01/03 12:50:05;;;;;;;3.40;1.40;;;10.90;99.90;;;;;;5038485;28;20960;-63
2023/01/03 12:52:34;;;;;;;5.35;1.10;;;11.00;99.90;;;;;;5040091;28;20059;-63
2023/01/03 12:55:17;;;;;;;2.78;1.00;;;11.10;99.90;;;;;;5037853;28;20120;-62
2023/01/03 12:58:14;;;;;;;2.92;1.00;;;11.00;99.90;;;;;;5047223;28;20047;-63
2023/01/03 13:01:00;;;;;;;1.42;0.80;;;11.00;99.90;;;;;;5046621;28;20040;-63
2023/01/03 13:03:33;;;;;;;4.05;0.85;;;10.80;99.90;;;;;;5057876;28;20017;-63
2023/01/03 13:06:22;;;;;;;1.42;0.80;;;10.70;99.90;;;;;;5050686;28;20028;-63
2023/01/03 13:09:03;;;;;;;2.97;0.88;;;10.70;99.90;;;;;;5049915;28;20036;-63
2023/01/03 13:11:28;;;;;;;3.00;0.95;;;10.60;99.90;;;;;;5042552;28;20028;-63
2023/01/03 13:13:59;;;;;;;5.63;0.85;;;10.60;99.90;;;;;;5044014;28;20532;-63
2023/01/03 13:16:39;;;;;;;2.58;0.90;;;10.50;99.90;;;;;;5051468;28;20429;-63
2023/01/03 13:19:23;;;;;;;1.40;0.75;;;10.50;99.90;;;;;;5048307;28;20479;-63
2023/01/03 13:21:59;;;;;;;4.68;0.80;;;10.50;99.90;;;;;;5029186;28;20578;-63
2023/01/03 13:24:50;;;;;;;4.75;0.70;;;10.60;99.90;;;;;;5047869;28;20032;-63
2023/01/03 13:27:21;;;;;;;2.63;0.52;;;10.60;99.90;;;;;;5042063;28;20079;-63
2023/01/03 13:29:49;;;;;;;1.77;0.70;;;10.70;99.90;;;;;;5041658;28;20476;-63
2023/01/03 13:32:21;;;;;;;3.38;0.98;;;10.70;99.90;;;;;;5049209;28;20036;-63
2023/01/03 13:34:53;;;;;;;1.08;0.73;;;10.70;99.90;;;;;;5045480;28;20021;-63
2023/01/03 13:37:24;;;;;;;0.52;0.50;;;10.60;99.90;;;;;;5048671;28;20537;-63
2023/01/03 13:39:49;;;;;;;0.50;0.50;;;10.50;99.90;;;;;;5044888;28;20055;-64
2023/01/03 13:42:29;;;;;;;1.35;0.70;;;10.30;99.90;;;;;;5044571;28;20021;-63
2023/01/03 13:45:10;;;;;;;1.60;0.47;;;10.20;99.90;;;;;;5048276;28;20697;-63
2023/01/03 13:47:49;;;;;;;1.17;0.68;;;10.10;99.90;;;;;;5051016;28;20025;-63
2023/01/03 13:50:20;;;;;;;2.05;0.60;;;9.90;99.90;;;;;;5061707;28;20067;-64
2023/01/03 13:53:25;;;;;;;7.18;0.82;;;9.80;99.90;;;;;;5047055;28;20087;-63
2023/01/03 13:55:58;;;;;;;2.47;1.10;;;9.80;99.90;;;;;;5046832;28;20079;-63
2023/01/03 13:58:26;;;;;;;1.20;0.80;;;9.70;99.90;;;;;;5038507;28;20090;-63
2023/01/03 14:00:54;;;;;;;1.52;0.63;;;9.70;99.90;;;;;;5026912;28;20116;-63
2023/01/03 14:03:54;;;;;;;0.68;0.50;;;9.60;99.90;;;;;;5047244;28;20090;-63
2023/01/03 14:06:28;;;;;;;2.92;0.73;;;9.60;99.90;;;;;;5042215;28;20021;-63
2023/01/03 14:09:06;;;;;;;2.72;0.65;;;9.60;99.90;;;;;;5036414;28;20434;-63
2023/01/03 14:12:10;;;;;;;2.97;0.82;;;9.60;99.90;;;;;;5039448;28;20029;-63
2023/01/03 14:14:39;;;;;;;6.05;1.02;;;9.60;99.90;;;;;;5041819;28;20040;-62
2023/01/03 14:17:16;;;;;;;1.75;0.70;;;9.70;99.90;;;;;;5039688;28;20031;-64
2023/01/03 14:19:49;;;;;;;1.02;0.90;;;9.70;99.90;;;;;;5042634;28;20040;-63
2023/01/03 14:22:19;;;;;;;2.05;0.80;;;9.70;99.90;;;;;;5038769;28;20027;-63